Reserve, Louisiana
Current Conditions -  °F | °C
As of 9:55 PM on Saturday 24 Jan 2015 (Local Time) from K1L0 Reporting Station
Clear Clear  
Wind Chill: 42°   Ceiling: Unl
Heat Index: 46°   Visibility: 10mi
Dew Point: 40°   Wind: 7mph
Humidity: 80%   Direction: 250°WSW
Pressure: 30.11"   Gusts: NA
Location:  30.06°N, 90.55°W
Report Text: K1L0 250355Z AUTO 25006KT 10SM CLR 08/05 A3011 RMK AO2 T00780045
Loading
Personal Weather Stations






























Interactive Weather Map New forecast layout! Learn more

10-Day Weather Forecast

Advertisements
Track Severe Weather on mobile